Time;durP1;ratioP1;P1;durP2;ratioP2;P2;SDS_P1;SDS_P2;PMS_P1;PMS_P2;Temp;Humidity;BMP_temperature;BMP_pressure;BME280_temperature;BME280_humidity;BME280_pressure;Samples;Min_cycle;Max_cycle;Signal;HPM_P1;HPM_P2
2022/06/12 00:01:21;;;;;;;2.30;1.70;;;;;;;21.38;54.38;100855.50;5033686;28;20483;-72
2022/06/12 00:03:47;;;;;;;1.73;1.63;;;;;;;21.30;53.85;100859.81;5033921;28;20426;-72
2022/06/12 00:06:14;;;;;;;3.75;1.83;;;;;;;21.27;53.88;100870.63;5033847;28;20457;-72
2022/06/12 00:08:40;;;;;;;1.90;1.45;;;;;;;21.17;53.88;100869.69;5033631;28;20905;-72
2022/06/12 00:11:07;;;;;;;2.80;1.70;;;;;;;20.96;53.95;100871.19;5016093;28;20457;-72
2022/06/12 00:13:38;;;;;;;5.03;1.85;;;;;;;20.85;54.34;100863.38;5033587;28;20391;-72
2022/06/12 00:16:06;;;;;;;2.22;1.73;;;;;;;20.87;54.10;100870.25;5033452;28;20564;-72
2022/06/12 00:18:32;;;;;;;2.47;1.60;;;;;;;20.91;54.09;100870.47;5033783;28;20398;-72
2022/06/12 00:21:13;;;;;;;3.58;1.67;;;;;;;20.97;54.00;100867.31;5032417;28;20399;-72
2022/06/12 00:24:01;;;;;;;1.73;1.63;;;;;;;21.02;53.75;100869.13;5033667;28;20391;-72
2022/06/12 00:26:34;;;;;;;2.17;1.67;;;;;;;21.04;53.59;100875.19;5033470;28;20590;-72
2022/06/12 00:29:06;;;;;;;3.42;1.85;;;;;;;20.99;53.75;100878.00;5033495;28;20819;-72
2022/06/12 00:31:34;;;;;;;1.57;1.47;;;;;;;20.95;54.21;100872.28;5033677;28;20445;-72
2022/06/12 00:34:01;;;;;;;5.15;1.77;;;;;;;20.95;54.26;100872.28;5033497;28;20391;-72
2022/06/12 00:36:26;;;;;;;4.72;2.05;;;;;;;21.00;54.96;100880.47;5033333;28;20426;-72
2022/06/12 00:38:52;;;;;;;4.97;2.33;;;;;;;20.86;56.89;100876.88;5033041;28;20403;-72
2022/06/12 00:41:17;;;;;;;4.13;2.60;;;;;;;20.88;57.96;100882.88;5015570;28;20484;-72
2022/06/12 00:43:43;;;;;;;3.20;1.75;;;;;;;20.90;58.67;100885.34;5033161;28;20395;-72
2022/06/12 00:46:47;;;;;;;2.47;1.63;;;;;;;20.96;58.98;100876.69;5033111;28;20402;-72
2022/06/12 00:49:21;;;;;;;2.90;2.00;;;;;;;20.92;60.41;100888.59;5033065;28;20442;-72
2022/06/12 00:51:49;;;;;;;2.22;1.92;;;;;;;20.81;61.34;100885.25;5032936;28;20460;-72
2022/06/12 00:54:16;;;;;;;2.15;2.05;;;;;;;20.84;61.69;100889.31;5033083;28;20762;-72
2022/06/12 00:56:47;;;;;;;3.00;1.83;;;;;;;20.84;61.78;100881.88;5032840;28;20407;-72
2022/06/12 00:59:48;;;;;;;2.00;1.85;;;;;;;20.89;61.65;100881.78;5032792;28;20383;-72
2022/06/12 01:02:19;;;;;;;3.03;2.07;;;;;;;20.88;61.58;100888.41;4990639;28;20420;-72
2022/06/12 01:07:35;;;;;;;3.75;2.05;;;;;;;20.92;61.66;100885.84;5032454;28;20405;-72
2022/06/12 01:10:05;;;;;;;2.72;2.40;;;;;;;20.92;61.61;100883.91;5031489;28;20391;-72
2022/06/12 01:12:37;;;;;;;1.98;1.88;;;;;;;20.92;61.63;100883.09;5032046;28;20743;-72
2022/06/12 01:15:10;;;;;;;5.85;1.80;;;;;;;20.89;61.44;100876.25;5032678;28;20406;-72
2022/06/12 01:17:37;;;;;;;2.45;2.17;;;;;;;20.91;60.82;100882.28;5032443;28;20391;-72
2022/06/12 01:20:08;;;;;;;2.40;2.08;;;;;;;20.88;60.27;100871.88;5032573;28;20476;-72
2022/06/12 01:22:46;;;;;;;3.65;2.17;;;;;;;20.79;59.95;100881.13;5032470;28;20594;-72
2022/06/12 01:25:28;;;;;;;2.47;2.00;;;;;;;20.67;59.92;100887.13;5032312;28;20399;-72
2022/06/12 01:28:22;;;;;;;2.15;1.80;;;;;;;20.61;59.38;100891.09;5032509;28;20399;-72
2022/06/12 01:31:09;;;;;;;2.28;2.08;;;;;;;20.54;58.88;100885.16;5032317;28;20423;-72
2022/06/12 01:33:42;;;;;;;2.30;2.15;;;;;;;20.46;58.45;100886.66;5017497;28;20397;-72
2022/06/12 01:36:25;;;;;;;4.63;1.95;;;;;;;20.36;58.41;100884.06;5032036;28;20975;-72
2022/06/12 01:39:09;;;;;;;2.35;1.80;;;;;;;20.27;58.27;100876.78;5031864;28;20418;-72
2022/06/12 01:42:03;;;;;;;2.33;2.13;;;;;;;20.20;58.70;100885.38;5032141;28;20391;-72
2022/06/12 01:44:47;;;;;;;6.13;2.33;;;;;;;20.05;59.52;100874.63;5032159;28;20479;-72
2022/06/12 01:47:37;;;;;;;2.15;2.05;;;;;;;20.00;60.06;100875.50;5031511;28;20845;-72
2022/06/12 01:50:19;;;;;;;3.45;2.20;;;;;;;20.06;60.18;100881.72;5031962;28;20387;-72
2022/06/12 01:52:59;;;;;;;2.85;1.88;;;;;;;20.10;60.06;100874.53;5031875;28;20434;-72
2022/06/12 01:55:24;;;;;;;2.40;2.20;;;;;;;20.17;60.10;100885.97;5031764;28;20406;-72
2022/06/12 01:58:06;;;;;;;3.20;2.20;;;;;;;20.18;60.18;100885.69;5031829;28;20795;-72
2022/06/12 02:00:33;;;;;;;4.75;2.03;;;;;;;20.17;59.35;100884.03;5031846;28;20401;-72
2022/06/12 02:03:04;;;;;;;3.47;2.00;;;;;;;20.07;58.76;100892.44;5031865;28;20399;-72
2022/06/12 02:05:51;;;;;;;2.92;1.95;;;;;;;19.94;58.33;100884.94;5031612;28;20495;-72
2022/06/12 02:08:23;;;;;;;2.83;1.90;;;;;;;19.76;58.66;100884.94;5031524;28;20414;-72
2022/06/12 02:10:56;;;;;;;2.05;1.85;;;;;;;19.73;58.70;100874.50;5031259;28;20399;-72
2022/06/12 02:13:32;;;;;;;2.42;1.85;;;;;;;19.77;58.96;100881.03;5020625;28;20394;-72
2022/06/12 02:16:10;;;;;;;3.95;2.13;;;;;;;19.71;58.93;100876.72;5031483;28;20442;-72
2022/06/12 02:18:44;;;;;;;2.67;2.20;;;;;;;19.69;59.17;100877.03;5031526;28;20403;-72
2022/06/12 02:21:43;;;;;;;4.03;2.13;;;;;;;19.70;59.20;100884.16;5013705;28;20388;-72
2022/06/12 02:24:25;;;;;;;2.27;2.07;;;;;;;19.58;59.44;100881.03;5031393;28;20391;-72
2022/06/12 02:27:00;;;;;;;3.13;2.22;;;;;;;19.58;59.55;100876.34;5000519;28;21104;-72
2022/06/12 02:29:41;;;;;;;2.08;1.90;;;;;;;19.66;58.98;100867.44;5031490;28;20396;-72
2022/06/12 02:32:20;;;;;;;3.15;1.73;;;;;;;19.73;58.78;100875.31;5031359;28;20461;-72
2022/06/12 02:34:52;;;;;;;3.42;2.20;;;;;;;19.67;58.65;100866.31;5031559;28;20431;-72
2022/06/12 02:37:22;;;;;;;2.05;1.95;;;;;;;19.66;58.65;100864.69;5031161;28;20423;-72
2022/06/12 02:40:02;;;;;;;2.27;2.07;;;;;;;19.65;58.37;100865.00;5031384;28;20429;-72
2022/06/12 02:42:37;;;;;;;7.33;2.40;;;;;;;19.59;58.25;100864.22;5031388;28;20399;-72
2022/06/12 02:45:28;;;;;;;2.55;1.90;;;;;;;19.54;58.33;100868.97;5031411;28;20395;-72
2022/06/12 02:47:54;;;;;;;4.05;1.75;;;;;;;19.50;57.95;100856.91;5027360;28;20476;-72
2022/06/12 02:50:23;;;;;;;2.67;2.03;;;;;;;19.46;57.95;100862.19;5031288;28;20751;-72
2022/06/12 02:52:58;;;;;;;2.20;1.83;;;;;;;19.42;58.01;100871.34;5031301;28;20396;-72
2022/06/12 02:55:46;;;;;;;3.58;1.90;;;;;;;19.20;58.34;100871.81;5031225;28;20419;-72
2022/06/12 02:58:48;;;;;;;1.80;1.60;;;;;;;18.99;58.82;100873.16;5016909;28;20394;-72
2022/06/12 03:01:18;;;;;;;1.63;1.40;;;;;;;19.02;58.75;100875.31;5031308;28;20429;-72
2022/06/12 03:03:53;;;;;;;2.95;1.83;;;;;;;18.98;58.55;100869.59;5031059;28;20814;-72
2022/06/12 03:06:20;;;;;;;1.70;1.60;;;;;;;18.91;58.75;100876.53;5013016;28;20423;-72
2022/06/12 03:08:49;;;;;;;2.65;1.88;;;;;;;18.96;58.92;100880.06;5013286;28;20491;-72
2022/06/12 03:11:24;;;;;;;2.13;1.70;;;;;;;19.13;58.44;100880.41;5013419;28;20399;-72
2022/06/12 03:13:51;;;;;;;4.15;2.08;;;;;;;19.11;58.52;100882.63;5031059;28;20386;-72
2022/06/12 03:16:28;;;;;;;3.38;1.85;;;;;;;19.01;58.44;100877.25;5013254;28;20465;-72
2022/06/12 03:18:56;;;;;;;2.22;1.60;;;;;;;18.96;58.92;100882.81;5030944;28;20786;-72
2022/06/12 03:21:44;;;;;;;1.80;1.70;;;;;;;18.94;59.00;100882.25;5031128;28;20384;-72
2022/06/12 03:24:42;;;;;;;2.70;1.67;;;;;;;19.03;58.89;100891.50;5031113;28;20384;-72
2022/06/12 03:27:38;;;;;;;2.03;1.52;;;;;;;19.16;58.72;100896.31;5030775;28;20387;-71
2022/06/12 03:30:24;;;;;;;2.60;1.60;;;;;;;19.20;58.74;100901.25;5030952;28;20812;-72
2022/06/12 03:33:04;;;;;;;2.40;1.63;;;;;;;19.22;58.67;100897.09;5030912;28;20390;-72
2022/06/12 03:35:32;;;;;;;4.68;1.80;;;;;;;19.24;58.82;100892.09;5031250;28;20411;-72
2022/06/12 03:38:35;;;;;;;1.80;1.70;;;;;;;19.27;58.92;100907.19;5034418;28;20399;-72
2022/06/12 03:41:20;;;;;;;3.63;2.00;;;;;;;19.27;59.20;100907.19;5034431;28;20395;-72
2022/06/12 03:44:06;;;;;;;2.08;1.98;;;;;;;19.25;59.24;100906.66;5034312;28;20430;-72
2022/06/12 03:46:52;;;;;;;4.35;2.13;;;;;;;19.25;59.56;100907.50;5034433;28;20456;-72
2022/06/12 03:49:31;;;;;;;3.13;2.37;;;;;;;19.22;59.99;100910.00;5034050;28;20415;-72
2022/06/12 03:52:12;;;;;;;3.10;2.08;;;;;;;19.29;60.05;100905.81;5016428;28;20808;-72
2022/06/12 03:54:46;;;;;;;2.70;2.03;;;;;;;19.29;60.09;100916.81;5034233;28;20398;-72
2022/06/12 04:00:17;;;;;;;2.30;2.20;;;;;;;19.40;59.83;100915.59;5034349;28;20379;-72
2022/06/12 04:02:45;;;;;;;2.67;1.88;;;;;;;19.40;59.72;100912.84;5033905;28;20460;-72
2022/06/12 04:05:19;;;;;;;2.95;2.25;;;;;;;19.40;59.44;100909.25;5015487;28;20557;-72
2022/06/12 04:07:48;;;;;;;2.25;2.05;;;;;;;19.40;59.32;100920.22;5033906;28;20395;-72
2022/06/12 04:10:17;;;;;;;2.42;1.90;;;;;;;19.37;58.93;100912.56;5033806;28;20870;-72
2022/06/12 04:12:43;;;;;;;5.45;2.40;;;;;;;19.36;58.95;100917.28;5033677;28;20400;-72
2022/06/12 04:15:22;;;;;;;3.53;1.70;;;;;;;19.30;58.85;100915.66;5033594;28;20395;-72
2022/06/12 04:17:49;;;;;;;3.20;1.98;;;;;;;19.28;58.33;100920.66;5033722;28;20482;-72
2022/06/12 04:20:21;;;;;;;4.80;2.22;;;;;;;19.26;58.58;100916.56;5033622;28;20529;-72
2022/06/12 04:22:50;;;;;;;2.53;2.08;;;;;;;19.21;58.67;100917.44;5033608;28;20434;-72
2022/06/12 04:25:22;;;;;;;4.93;2.15;;;;;;;19.17;58.87;100916.34;5033501;28;20391;-72
2022/06/12 04:27:47;;;;;;;2.40;1.85;;;;;;;19.16;59.00;100912.78;5033473;28;20392;-72
2022/06/12 04:30:24;;;;;;;3.83;2.28;;;;;;;19.16;59.16;100915.53;5033481;28;20395;-72
2022/06/12 04:32:58;;;;;;;4.97;2.70;;;;;;;19.18;59.24;100916.09;5032318;28;20755;-72
2022/06/12 04:35:24;;;;;;;4.07;2.33;;;;;;;19.17;59.26;100914.44;5033128;28;20490;-72
2022/06/12 04:37:50;;;;;;;4.20;2.53;;;;;;;19.16;59.49;100917.50;5033781;28;20537;-72
2022/06/12 04:40:27;;;;;;;3.17;2.30;;;;;;;19.17;59.58;100919.94;5032843;28;20396;-72
2022/06/12 04:42:53;;;;;;;3.63;2.25;;;;;;;19.20;59.63;100918.53;5033280;28;20755;-72
2022/06/12 04:45:18;;;;;;;5.60;2.50;;;;;;;19.23;59.71;100923.47;5033142;28;20399;-72
2022/06/12 04:47:44;;;;;;;2.37;2.23;;;;;;;19.28;59.67;100917.06;5031995;28;20430;-72
2022/06/12 04:50:14;;;;;;;4.73;2.83;;;;;;;19.34;59.78;100926.91;5033072;28;20415;-72
2022/06/12 04:52:40;;;;;;;4.03;2.08;;;;;;;19.35;60.06;100929.38;5033552;28;20395;-72
2022/06/12 04:55:05;;;;;;;3.30;2.80;;;;;;;19.37;60.25;100924.38;5032950;28;20436;-72
2022/06/12 04:57:31;;;;;;;3.38;2.22;;;;;;;19.39;60.25;100924.94;5032869;28;20392;-72
2022/06/12 04:59:57;;;;;;;2.80;2.10;;;;;;;19.43;60.29;100922.47;5032823;28;20387;-72
2022/06/12 05:02:23;;;;;;;2.60;2.40;;;;;;;19.46;60.42;100922.66;5032963;28;20394;-72
2022/06/12 05:04:49;;;;;;;2.97;2.70;;;;;;;19.47;60.48;100929.81;5032377;28;20419;-72
2022/06/12 05:07:15;;;;;;;4.20;2.67;;;;;;;19.42;60.88;100931.81;5032761;28;20467;-72
2022/06/12 05:09:41;;;;;;;5.13;2.85;;;;;;;19.42;60.96;100926.31;5032679;28;20392;-72
2022/06/12 05:12:08;;;;;;;4.47;2.80;;;;;;;19.48;60.58;100933.38;5032673;28;20391;-72
2022/06/12 05:14:34;;;;;;;2.80;2.55;;;;;;;19.52;60.62;100924.25;5032659;28;20391;-72
2022/06/12 05:17:03;;;;;;;3.28;3.03;;;;;;;19.57;60.57;100931.63;5032565;28;20916;-72
2022/06/12 05:19:34;;;;;;;6.43;3.60;;;;;;;19.62;60.55;100926.91;5032447;28;20433;-72
2022/06/12 05:22:00;;;;;;;4.65;2.88;;;;;;;19.66;60.66;100932.59;5032572;28;20782;-72
2022/06/12 05:24:26;;;;;;;4.40;2.70;;;;;;;19.73;60.71;100935.81;5032603;28;20440;-72
2022/06/12 05:26:53;;;;;;;3.35;2.60;;;;;;;19.76;60.97;100934.44;5032509;28;20395;-72
2022/06/12 05:29:26;;;;;;;8.02;2.60;;;;;;;19.77;60.92;100930.53;5032247;28;20790;-72
2022/06/12 05:31:52;;;;;;;2.85;2.60;;;;;;;19.75;61.16;100930.84;5032413;28;20437;-72
2022/06/12 05:34:18;;;;;;;3.53;2.80;;;;;;;19.77;61.32;100931.38;5032015;28;20413;-72
2022/06/12 05:36:44;;;;;;;4.97;2.83;;;;;;;19.84;61.42;100929.09;5032458;28;20437;-72
2022/06/12 05:39:09;;;;;;;3.30;2.85;;;;;;;19.90;61.44;100927.91;5032107;28;20395;-72
2022/06/12 05:41:35;;;;;;;3.33;2.40;;;;;;;19.92;61.48;100925.66;5032250;28;20426;-72
2022/06/12 05:44:00;;;;;;;4.23;2.40;;;;;;;19.96;61.51;100931.38;5014607;28;20406;-72
2022/06/12 05:46:26;;;;;;;2.97;2.67;;;;;;;20.02;61.48;100930.22;5032192;28;20493;-72
2022/06/12 05:48:51;;;;;;;4.85;2.28;;;;;;;20.06;61.48;100928.50;5031966;28;20437;-72
2022/06/12 05:51:18;;;;;;;3.83;2.75;;;;;;;20.06;61.60;100926.56;5032115;28;20387;-72
2022/06/12 05:53:44;;;;;;;2.42;2.05;;;;;;;20.13;61.54;100931.72;5032150;28;20654;-72
2022/06/12 05:56:16;;;;;;;3.92;2.65;;;;;;;20.16;61.54;100931.94;5031798;28;20736;-72
2022/06/12 05:58:42;;;;;;;4.20;2.77;;;;;;;20.22;61.38;100932.66;5013972;28;20387;-72
2022/06/12 06:01:10;;;;;;;2.83;2.42;;;;;;;20.27;61.30;100927.13;5031842;28;20379;-72
2022/06/12 06:03:36;;;;;;;3.17;2.60;;;;;;;20.31;61.42;100924.63;5031444;28;20395;-72
2022/06/12 06:06:02;;;;;;;2.92;2.63;;;;;;;20.35;61.25;100925.66;5031691;28;20739;-72
2022/06/12 06:08:28;;;;;;;4.40;2.60;;;;;;;20.40;61.11;100928.31;5031625;28;20387;-72
2022/06/12 06:10:53;;;;;;;3.83;2.63;;;;;;;20.45;61.23;100926.28;5031724;28;20398;-72
2022/06/12 06:13:20;;;;;;;2.78;2.25;;;;;;;20.54;61.45;100927.28;5031749;28;20437;-72
2022/06/12 06:15:47;;;;;;;2.97;2.63;;;;;;;20.58;61.30;100931.03;5031540;28;20395;-72
2022/06/12 06:18:12;;;;;;;4.38;3.03;;;;;;;20.60;61.10;100922.50;5031622;28;20391;-72
2022/06/12 06:20:39;;;;;;;3.87;2.40;;;;;;;20.63;61.17;100933.72;5031936;28;20884;-72
2022/06/12 06:23:06;;;;;;;5.97;3.37;;;;;;;20.66;61.07;100935.06;5031546;28;20890;-72
2022/06/12 06:25:33;;;;;;;2.97;2.70;;;;;;;20.69;61.37;100921.50;5031620;28;20403;-72
2022/06/12 06:27:59;;;;;;;3.88;2.90;;;;;;;20.77;61.40;100933.78;5031536;28;20401;-72
2022/06/12 06:30:26;;;;;;;4.17;2.90;;;;;;;20.81;61.06;100932.06;5030736;28;20872;-72
2022/06/12 06:32:51;;;;;;;4.87;3.17;;;;;;;20.85;60.97;100932.25;5031712;28;20449;-71
2022/06/12 06:35:18;;;;;;;3.40;3.03;;;;;;;20.85;61.07;100933.06;5031599;28;20790;-72
2022/06/12 06:37:43;;;;;;;4.65;3.65;;;;;;;20.89;61.14;100936.88;5031460;28;20410;-72
2022/06/12 06:40:11;;;;;;;4.60;3.50;;;;;;;20.97;61.01;100936.19;5031490;28;20384;-72
2022/06/12 06:42:37;;;;;;;3.17;2.80;;;;;;;21.03;60.88;100931.41;5031407;28;20402;-72
2022/06/12 06:47:48;;;;;;;4.70;3.30;;;;;;;21.10;60.89;100927.16;5031432;28;20402;-72
2022/06/12 06:50:16;;;;;;;3.28;2.95;;;;;;;21.12;61.08;100930.44;5031426;28;20489;-72
2022/06/12 06:52:41;;;;;;;3.15;2.92;;;;;;;21.16;61.01;100930.66;5031409;28;20833;-72
2022/06/12 06:55:09;;;;;;;4.27;2.77;;;;;;;21.22;61.09;100929.41;5031243;28;20528;-72
2022/06/12 06:57:40;;;;;;;3.60;2.88;;;;;;;21.27;60.86;100932.09;5031113;28;20407;-72
2022/06/12 07:00:09;;;;;;;3.38;2.63;;;;;;;21.32;60.44;100932.00;5031176;28;20403;-71
2022/06/12 07:02:34;;;;;;;3.30;3.10;;;;;;;21.42;59.60;100933.72;5031340;28;20403;-72
2022/06/12 07:04:59;;;;;;;3.27;2.80;;;;;;;21.49;59.63;100934.16;5031050;28;20882;-72
2022/06/12 07:07:25;;;;;;;3.70;2.90;;;;;;;21.54;59.74;100934.84;5013324;28;20467;-72
2022/06/12 07:09:50;;;;;;;2.40;2.20;;;;;;;21.58;59.88;100924.03;5031187;28;20380;-72
2022/06/12 07:12:15;;;;;;;3.10;2.43;;;;;;;21.59;59.27;100926.50;5034558;28;20887;-71
2022/06/12 07:14:42;;;;;;;2.97;2.65;;;;;;;21.64;59.24;100931.06;5034167;28;20419;-72
2022/06/12 07:17:08;;;;;;;4.47;2.90;;;;;;;21.67;58.78;100928.53;5034652;28;20916;-72
2022/06/12 07:19:33;;;;;;;2.73;2.53;;;;;;;21.72;58.39;100924.84;5034911;28;20445;-72
2022/06/12 07:21:59;;;;;;;3.63;2.50;;;;;;;21.77;58.38;100926.69;5034739;28;20727;-72
2022/06/12 07:24:24;;;;;;;2.35;2.10;;;;;;;21.87;57.54;100929.22;5034638;28;20423;-72
2022/06/12 07:26:50;;;;;;;2.90;2.35;;;;;;;21.98;56.86;100911.34;5034593;28;20450;-72
2022/06/12 07:29:18;;;;;;;3.13;2.83;;;;;;;22.03;57.06;100919.53;5016527;28;20482;-72
2022/06/12 07:31:44;;;;;;;3.17;2.30;;;;;;;22.07;56.78;100926.03;5034745;28;20399;-72
2022/06/12 07:34:12;;;;;;;2.85;2.38;;;;;;;22.09;57.14;100921.03;5034511;28;20742;-72
2022/06/12 07:36:38;;;;;;;7.00;2.40;;;;;;;22.13;57.24;100922.03;5034411;28;20447;-72
2022/06/12 07:39:07;;;;;;;3.20;1.92;;;;;;;22.26;56.12;100912.09;5034060;28;20410;-72
2022/06/12 07:41:32;;;;;;;2.95;2.28;;;;;;;22.35;55.87;100913.81;5034141;28;20399;-72
2022/06/12 07:43:58;;;;;;;3.13;2.83;;;;;;;22.41;55.67;100912.56;5034353;28;20399;-72
2022/06/12 07:46:23;;;;;;;2.57;2.37;;;;;;;22.41;55.93;100914.50;5034410;28;20758;-72
2022/06/12 07:48:48;;;;;;;2.53;2.42;;;;;;;22.40;55.94;100905.38;5016640;28;20387;-72
2022/06/12 07:51:17;;;;;;;2.67;2.47;;;;;;;22.46;55.69;100906.91;5033269;28;20448;-72
2022/06/12 07:53:43;;;;;;;2.15;2.00;;;;;;;22.53;55.27;100906.47;5034227;28;20383;-72
2022/06/12 07:56:10;;;;;;;6.22;2.97;;;;;;;22.61;55.15;100909.31;5034035;28;20513;-72
2022/06/12 07:58:37;;;;;;;4.13;2.90;;;;;;;22.61;55.11;100906.53;5033920;28;20493;-72
2022/06/12 08:01:06;;;;;;;3.65;2.85;;;;;;;22.64;55.16;100905.09;5034080;28;20433;-72
2022/06/12 08:03:32;;;;;;;2.92;2.75;;;;;;;22.67;55.01;100904.50;5033934;28;20395;-73
2022/06/12 08:05:58;;;;;;;2.85;2.65;;;;;;;22.71;54.87;100902.75;5033910;28;20478;-73
2022/06/12 08:08:25;;;;;;;3.22;3.03;;;;;;;22.75;55.33;100896.25;5016128;28;20493;-73
2022/06/12 08:10:50;;;;;;;2.95;2.45;;;;;;;22.83;55.48;100894.69;5034138;28;20387;-73
2022/06/12 08:13:16;;;;;;;3.07;2.70;;;;;;;22.90;55.36;100889.53;5033977;28;20395;-73
2022/06/12 08:15:45;;;;;;;3.70;2.63;;;;;;;22.98;54.72;100882.41;5033719;28;20403;-73
2022/06/12 08:18:11;;;;;;;5.13;2.60;;;;;;;23.04;55.00;100878.38;5033890;28;20420;-73
2022/06/12 08:20:40;;;;;;;6.25;4.47;;;;;;;23.11;54.72;100882.31;5033845;28;20935;-73
2022/06/12 08:23:26;;;;;;;7.88;2.97;;;;;;;23.17;54.73;100874.69;5015538;28;20466;-73
2022/06/12 08:26:03;;;;;;;3.60;2.92;;;;;;;23.26;54.58;100881.06;5033609;28;20430;-73
2022/06/12 08:28:31;;;;;;;2.80;2.50;;;;;;;23.37;54.56;100882.44;5033332;28;20419;-73
2022/06/12 08:30:57;;;;;;;3.05;2.10;;;;;;;23.46;54.10;100874.19;5033513;28;20417;-73
2022/06/12 08:33:23;;;;;;;2.50;2.30;;;;;;;23.54;54.07;100882.53;5033454;28;20387;-73
2022/06/12 08:35:50;;;;;;;3.07;2.70;;;;;;;23.65;54.09;100875.53;5033259;28;20498;-73
2022/06/12 08:38:15;;;;;;;2.53;2.33;;;;;;;23.76;53.35;100885.19;5033455;28;20445;-73
2022/06/12 08:40:53;;;;;;;2.77;2.57;;;;;;;23.88;53.13;100890.06;5033329;28;20383;-73
2022/06/12 08:43:29;;;;;;;2.78;2.47;;;;;;;23.93;52.91;100884.41;5033231;28;20474;-73
2022/06/12 08:45:58;;;;;;;2.70;2.50;;;;;;;24.04;53.24;100879.38;5033097;28;20395;-73
2022/06/12 08:48:31;;;;;;;4.47;2.67;;;;;;;24.15;52.95;100881.50;5033376;28;20427;-73
2022/06/12 08:51:04;;;;;;;4.30;2.33;;;;;;;24.25;52.60;100880.38;5033122;28;20399;-73
2022/06/12 08:53:41;;;;;;;2.15;1.98;;;;;;;24.31;52.80;100870.75;5033120;28;20392;-73
2022/06/12 08:56:13;;;;;;;2.35;2.00;;;;;;;24.43;52.51;100876.47;5015111;28;20778;-73
2022/06/12 08:58:59;;;;;;;3.97;2.53;;;;;;;24.55;52.79;100873.81;5032666;28;20728;-73
2022/06/12 09:01:24;;;;;;;1.90;1.80;;;;;;;24.67;51.34;100870.38;5032899;28;20743;-72
2022/06/12 09:03:53;;;;;;;2.13;1.97;;;;;;;24.77;50.41;100875.56;5032866;28;20434;-72
2022/06/12 09:06:41;;;;;;;2.72;2.53;;;;;;;24.89;50.66;100872.16;5014888;28;20443;-72
2022/06/12 09:09:34;;;;;;;5.10;3.03;;;;;;;25.01;50.61;100866.72;5014924;28;20472;-73
2022/06/12 09:12:23;;;;;;;3.60;2.28;;;;;;;25.13;50.08;100859.34;5014977;28;20758;-73
2022/06/12 09:15:10;;;;;;;3.65;2.13;;;;;;;25.27;50.26;100856.34;5032634;28;20391;-73
2022/06/12 09:18:13;;;;;;;2.40;2.20;;;;;;;25.41;49.69;100856.13;5032428;28;20411;-73
2022/06/12 09:21:05;;;;;;;2.20;2.00;;;;;;;25.58;49.45;100859.66;5014736;28;20403;-73
2022/06/12 09:23:36;;;;;;;3.95;2.40;;;;;;;25.66;49.49;100853.22;5017100;28;20394;-73
2022/06/12 09:26:36;;;;;;;2.40;2.00;;;;;;;25.83;49.19;100855.06;5014882;28;20439;-73
2022/06/12 09:29:15;;;;;;;2.00;1.90;;;;;;;26.03;48.25;100845.94;5014314;28;20956;-73
2022/06/12 09:31:51;;;;;;;2.42;2.22;;;;;;;26.19;48.13;100849.75;5014628;28;20478;-73
2022/06/12 09:34:28;;;;;;;4.20;2.20;;;;;;;26.38;47.10;100840.91;5031807;28;20454;-73
2022/06/12 09:38:18;;;;;;;3.65;2.45;;;;;;;26.55;46.88;100845.50;5014419;28;20421;-73
2022/06/12 09:40:04;;;;;;;2.10;2.00;;;;;;;26.72;46.44;100843.34;5032103;28;20399;-73
2022/06/12 09:42:51;;;;;;;3.90;2.03;;;;;;;26.95;45.70;100840.19;5032160;28;20392;-73
2022/06/12 09:45:44;;;;;;;2.50;1.83;;;;;;;27.11;45.17;100841.94;5014477;28;20383;-72
2022/06/12 09:48:37;;;;;;;1.80;1.70;;;;;;;27.30;44.95;100841.34;5032071;28;20410;-73
2022/06/12 09:51:17;;;;;;;1.60;1.30;;;;;;;27.58;44.23;100847.06;5032097;28;20441;-73
2022/06/12 09:53:52;;;;;;;2.63;1.50;;;;;;;27.88;43.48;100850.38;5014324;28;20391;-73
2022/06/12 09:56:47;;;;;;;2.10;1.98;;;;;;;28.14;42.65;100843.28;5014405;28;20510;-72
2022/06/12 09:59:19;;;;;;;2.00;1.80;;;;;;;29.13;40.93;100836.84;5031792;28;20728;-72
2022/06/12 10:01:47;;;;;;;1.70;1.60;;;;;;;30.99;37.08;100838.53;5032089;28;20482;-72
2022/06/12 10:04:22;;;;;;;4.68;1.85;;;;;;;32.16;34.90;100841.16;5031969;28;20402;-72
2022/06/12 10:06:58;;;;;;;1.98;1.80;;;;;;;32.90;33.94;100836.38;5014205;28;20411;-72
2022/06/12 10:09:23;;;;;;;2.10;1.48;;;;;;;33.69;32.59;100836.66;5031888;28;20391;-73
2022/06/12 10:11:53;;;;;;;2.70;1.53;;;;;;;34.41;31.22;100835.84;5031982;28;20443;-72
2022/06/12 10:14:27;;;;;;;3.05;1.70;;;;;;;34.51;30.81;100823.81;5031546;28;20814;-72
2022/06/12 10:16:58;;;;;;;2.17;1.50;;;;;;;34.67;30.27;100826.28;5013983;28;20512;-72
2022/06/12 10:19:46;;;;;;;2.55;1.10;;;;;;;34.84;29.82;100820.66;5031685;28;20399;-72
2022/06/12 10:22:17;;;;;;;3.50;1.27;;;;;;;35.42;28.52;100819.50;5031706;28;20796;-72
2022/06/12 10:24:43;;;;;;;3.10;0.77;;;;;;;36.04;27.80;100819.75;5031580;28;20392;-72
2022/06/12 10:27:13;;;;;;;1.63;1.00;;;;;;;36.75;26.17;100825.09;5031295;28;20414;-72
2022/06/12 10:29:52;;;;;;;2.00;0.70;;;;;;;37.26;24.32;100813.78;5031711;28;20665;-72
2022/06/12 10:32:25;;;;;;;1.65;0.60;;;;;;;37.66;23.45;100808.56;5013284;28;20441;-72
2022/06/12 10:34:52;;;;;;;4.53;0.60;;;;;;;38.11;23.00;100807.22;5031513;28;20402;-72
2022/06/12 10:37:27;;;;;;;1.77;0.80;;;;;;;38.69;21.95;100808.06;5031306;28;20498;-72
2022/06/12 10:40:09;;;;;;;2.45;1.13;;;;;;;39.09;21.27;100809.84;5031495;28;20421;-72
2022/06/12 10:42:43;;;;;;;0.90;0.80;;;;;;;39.15;21.55;100807.34;5031365;28;20398;-72
2022/06/12 10:45:25;;;;;;;0.90;0.80;;;;;;;39.61;20.65;100803.69;5033581;28;20387;-72
2022/06/12 10:48:03;;;;;;;1.77;0.82;;;;;;;39.90;20.83;100808.38;5035520;28;20845;-72
2022/06/12 10:50:32;;;;;;;0.75;0.52;;;;;;;39.86;20.60;100799.13;5035457;28;20391;-72
2022/06/12 10:53:00;;;;;;;1.30;0.80;;;;;;;40.00;20.40;100798.03;5035359;28;20391;-72
2022/06/12 10:55:40;;;;;;;2.72;1.00;;;;;;;40.16;21.03;100794.47;5035237;28;20395;-70
2022/06/12 10:58:33;;;;;;;2.03;1.00;;;;;;;40.48;19.96;100790.91;5026166;28;20797;-71
2022/06/12 11:01:16;;;;;;;1.40;1.02;;;;;;;40.51;20.41;100790.81;5017439;28;20395;-71
2022/06/12 11:04:02;;;;;;;2.53;0.80;;;;;;;41.11;19.66;100791.44;5035086;28;20394;-71
2022/06/12 11:06:54;;;;;;;3.55;0.80;;;;;;;40.88;19.59;100784.69;5034744;28;20415;-71
2022/06/12 11:09:46;;;;;;;1.97;1.17;;;;;;;41.01;19.61;100776.25;5035091;28;20395;-71
2022/06/12 11:12:36;;;;;;;0.95;0.77;;;;;;;41.34;19.25;100782.69;5033761;28;20399;-71
2022/06/12 11:15:38;;;;;;;1.30;1.17;;;;;;;41.35;19.24;100772.91;5035329;28;20398;-71
2022/06/12 11:18:22;;;;;;;0.88;0.82;;;;;;;41.06;19.43;100766.41;5034871;28;20401;-71
2022/06/12 11:20:57;;;;;;;1.45;0.90;;;;;;;40.84;19.62;100760.41;5034861;28;20397;-71
2022/06/12 11:23:40;;;;;;;1.47;0.97;;;;;;;41.08;19.39;100766.75;5034783;28;20387;-71
2022/06/12 11:26:37;;;;;;;0.80;0.77;;;;;;;41.21;19.13;100761.94;5017005;28;20405;-71
2022/06/12 11:29:20;;;;;;;1.92;0.80;;;;;;;41.20;19.16;100763.97;5032434;28;20494;-71
2022/06/12 11:32:02;;;;;;;1.50;0.98;;;;;;;40.69;20.02;100754.31;5034772;28;20524;-71
2022/06/12 11:34:35;;;;;;;1.38;0.85;;;;;;;40.90;19.56;100762.28;5034655;28;20384;-71
2022/06/12 11:37:37;;;;;;;2.55;0.90;;;;;;;41.17;18.98;100750.66;5034498;28;20438;-71
2022/06/12 11:40:12;;;;;;;3.63;1.10;;;;;;;41.16;19.27;100751.91;5034545;28;20824;-71
2022/06/12 11:43:07;;;;;;;2.63;0.90;;;;;;;40.60;19.46;100736.28;5034423;28;20855;-71
2022/06/12 11:45:38;;;;;;;2.88;0.80;;;;;;;40.12;20.07;100745.50;5017768;28;20887;-71
2022/06/12 11:48:14;;;;;;;2.20;0.65;;;;;;;39.87;21.07;100740.34;5026845;28;20850;-71
2022/06/12 11:51:10;;;;;;;1.10;0.80;;;;;;;39.55;20.50;100741.00;5034337;28;20404;-71
2022/06/12 11:54:19;;;;;;;0.80;0.57;;;;;;;38.27;22.06;100730.97;5032947;28;20402;-71
2022/06/12 11:57:10;;;;;;;1.90;0.80;;;;;;;37.53;22.84;100729.13;5033124;28;20507;-71
2022/06/12 11:59:35;;;;;;;1.20;0.80;;;;;;;38.58;21.70;100733.78;5034153;28;20483;-71
2022/06/12 12:02:08;;;;;;;1.70;0.90;;;;;;;38.98;21.61;100726.25;5034130;28;20537;-71
2022/06/12 12:04:58;;;;;;;2.10;0.90;;;;;;;38.81;21.35;100723.31;5034002;28;20476;-72